Time,TemperatureF,DewpointF,PressureIn,WindDirection,WindDirectionDegrees,WindSpeedMPH,WindSpeedGustMPH,Humidity,HourlyPrecipIn,Conditions,Clouds,dailyrainin,SoftwareType,DateUTC
2013-03-29 00:00:00,32.3,25.6,30.31,West,269,0.0,0.0,76,0.00,,,0.00,Wunderground v.1.15,2013-03-29 05:00:00,
2013-03-29 00:05:00,32.4,25.7,30.31,West,269,0.0,0.0,76,0.00,,,0.00,Wunderground v.1.15,2013-03-29 05:05:00,
2013-03-29 00:10:00,32.4,25.7,30.31,West,269,0.0,0.0,76,0.00,,,0.00,Wunderground v.1.15,2013-03-29 05:10:00,
2013-03-29 00:15:00,32.3,25.9,30.31,West,269,0.0,0.0,77,0.00,,,0.00,Wunderground v.1.15,2013-03-29 05:15:00,
2013-03-29 00:20:00,32.3,25.9,30.31,West,269,0.0,0.0,77,0.00,,,0.00,Wunderground v.1.15,2013-03-29 05:20:00,
2013-03-29 00:25:00,32.2,25.8,30.31,West,269,0.0,0.0,77,0.00,,,0.00,Wunderground v.1.15,2013-03-29 05:25:00,
2013-03-29 00:30:00,32.2,25.8,30.31,West,263,0.0,0.0,77,0.00,,,0.00,Wunderground v.1.15,2013-03-29 05:30:00,
2013-03-29 00:35:00,32.3,25.9,30.31,West,263,0.0,0.0,77,0.00,,,0.00,Wunderground v.1.15,2013-03-29 05:35:00,
2013-03-29 00:40:00,32.3,25.9,30.31,West,263,0.0,0.0,77,0.00,,,0.00,Wunderground v.1.15,2013-03-29 05:40:00,
2013-03-29 00:45:00,32.3,25.9,30.31,West,263,0.0,0.0,77,0.00,,,0.00,Wunderground v.1.15,2013-03-29 05:45:00,
2013-03-29 00:50:00,32.2,25.8,30.31,West,263,0.0,0.0,77,0.00,,,0.00,Wunderground v.1.15,2013-03-29 05:50:00,
2013-03-29 00:54:00,32.1,25.7,30.31,West,263,0.0,0.0,77,0.00,,,0.00,Wunderground v.1.15,2013-03-29 05:54:00,
2013-03-29 01:00:00,31.9,25.5,30.31,West,263,0.0,0.0,77,0.00,,,0.00,Wunderground v.1.15,2013-03-29 06:00:00,
2013-03-29 01:05:00,31.7,25.3,30.31,West,263,0.0,0.0,77,0.00,,,0.00,Wunderground v.1.15,2013-03-29 06:05:00,
2013-03-29 01:10:00,31.5,25.4,30.31,West,263,0.0,0.0,78,0.00,,,0.00,Wunderground v.1.15,2013-03-29 06:10:00,
2013-03-29 01:15:00,31.3,25.2,30.32,West,263,0.0,0.0,78,0.00,,,0.00,Wunderground v.1.15,2013-03-29 06:15:00,
2013-03-29 01:20:00,31.1,25.0,30.32,West,263,0.0,0.0,78,0.00,,,0.00,Wunderground v.1.15,2013-03-29 06:20:00,
2013-03-29 01:24:00,30.9,25.2,30.31,West,263,0.0,0.0,79,0.00,,,0.00,Wunderground v.1.15,2013-03-29 06:24:00,
2013-03-29 01:29:00,30.7,25.0,30.32,West,263,0.0,0.0,79,0.00,,,0.00,Wunderground v.1.15,2013-03-29 06:29:00,
2013-03-29 01:34:00,30.5,24.8,30.31,West,263,0.0,0.0,79,0.00,,,0.00,Wunderground v.1.15,2013-03-29 06:34:00,
2013-03-29 01:39:00,30.2,24.8,30.31,West,263,0.0,0.0,80,0.00,,,0.00,Wunderground v.1.15,2013-03-29 06:39:00,
2013-03-29 01:44:00,30.1,25.0,30.31,West,263,0.0,0.0,81,0.00,,,0.00,Wunderground v.1.15,2013-03-29 06:44:00,
2013-03-29 01:49:00,29.9,24.8,30.31,West,263,0.0,0.0,81,0.00,,,0.00,Wunderground v.1.15,2013-03-29 06:49:00,
2013-03-29 01:55:00,29.6,24.5,30.31,West,263,0.0,0.0,81,0.00,,,0.00,Wunderground v.1.15,2013-03-29 06:55:00,
2013-03-29 02:00:00,29.4,24.6,30.32,West,263,0.0,0.0,82,0.00,,,0.00,Wunderground v.1.15,2013-03-29 07:00:00,
2013-03-29 02:05:00,29.2,24.4,30.32,West,263,0.0,0.0,82,0.00,,,0.00,Wunderground v.1.15,2013-03-29 07:05:00,
2013-03-29 02:10:00,29.0,24.5,30.31,West,263,0.0,0.0,83,0.00,,,0.00,Wunderground v.1.15,2013-03-29 07:10:00,
2013-03-29 02:15:00,28.8,24.3,30.31,West,263,0.0,0.0,83,0.00,,,0.00,Wunderground v.1.15,2013-03-29 07:15:00,
2013-03-29 02:20:00,28.6,24.1,30.31,West,263,0.0,0.0,83,0.00,,,0.00,Wunderground v.1.15,2013-03-29 07:20:00,
2013-03-29 02:25:00,28.4,24.2,30.31,West,263,0.0,0.0,84,0.00,,,0.00,Wunderground v.1.15,2013-03-29 07:25:00,
2013-03-29 02:30:00,28.3,24.1,30.31,West,263,0.0,0.0,84,0.00,,,0.00,Wunderground v.1.15,2013-03-29 07:30:00,
2013-03-29 02:35:00,28.1,23.9,30.31,West,263,0.0,0.0,84,0.00,,,0.00,Wunderground v.1.15,2013-03-29 07:35:00,
2013-03-29 02:40:00,28.0,23.8,30.31,West,263,0.0,0.0,84,0.00,,,0.00,Wunderground v.1.15,2013-03-29 07:40:00,
2013-03-29 02:45:00,27.8,23.9,30.30,West,263,0.0,0.0,85,0.00,,,0.00,Wunderground v.1.15,2013-03-29 07:45:00,
2013-03-29 02:50:00,27.7,23.8,30.31,West,263,0.0,0.0,85,0.00,,,0.00,Wunderground v.1.15,2013-03-29 07:50:00,
2013-03-29 02:55:00,27.6,23.7,30.30,West,263,0.0,0.0,85,0.00,,,0.00,Wunderground v.1.15,2013-03-29 07:55:00,
2013-03-29 03:00:00,27.4,23.5,30.30,West,263,0.0,0.0,85,0.00,,,0.00,Wunderground v.1.15,2013-03-29 08:00:00,
2013-03-29 04:29:00,25.1,22.3,30.30,West,263,0.0,0.0,89,0.00,,,0.00,Wunderground v.1.15,2013-03-29 09:29:00,
2013-03-29 04:34:00,25.1,22.3,30.30,West,263,0.0,0.0,89,0.00,,,0.00,Wunderground v.1.15,2013-03-29 09:34:00,
2013-03-29 04:39:00,25.0,22.2,30.30,West,263,0.0,0.0,89,0.00,,,0.00,Wunderground v.1.15,2013-03-29 09:39:00,
2013-03-29 04:44:00,24.9,22.4,30.30,West,263,0.0,0.0,90,0.00,,,0.00,Wunderground v.1.15,2013-03-29 09:44:00,
2013-03-29 04:49:00,24.9,22.4,30.30,West,263,0.0,0.0,90,0.00,,,0.00,Wunderground v.1.15,2013-03-29 09:49:00,
2013-03-29 04:54:00,24.9,22.4,30.30,West,263,0.0,0.0,90,0.00,,,0.00,Wunderground v.1.15,2013-03-29 09:54:00,
2013-03-29 05:00:00,24.8,22.3,30.30,West,263,0.0,0.0,90,0.00,,,0.00,Wunderground v.1.15,2013-03-29 10:00:00,
2013-03-29 05:04:00,24.8,22.3,30.30,West,263,0.0,0.0,90,0.00,,,0.00,Wunderground v.1.15,2013-03-29 10:04:00,
2013-03-29 05:10:00,24.7,22.2,30.30,West,263,0.0,0.0,90,0.00,,,0.00,Wunderground v.1.15,2013-03-29 10:10:00,
2013-03-29 05:15:00,24.6,22.1,30.30,West,263,0.0,0.0,90,0.00,,,0.00,Wunderground v.1.15,2013-03-29 10:15:00,
2013-03-29 05:20:00,24.5,22.0,30.30,West,263,0.0,0.0,90,0.00,,,0.00,Wunderground v.1.15,2013-03-29 10:20:00,
2013-03-29 05:30:00,24.5,22.2,30.30,West,263,0.0,0.0,91,0.00,,,0.00,Wunderground v.1.15,2013-03-29 10:30:00,
2013-03-29 05:35:00,24.5,22.0,30.30,West,263,0.0,0.0,90,0.00,,,0.00,Wunderground v.1.15,2013-03-29 10:35:00,
2013-03-29 05:40:00,24.4,21.9,30.30,West,263,0.0,0.0,90,0.00,,,0.00,Wunderground v.1.15,2013-03-29 10:40:00,
2013-03-29 05:45:00,24.4,22.2,30.30,West,263,0.0,0.0,91,0.00,,,0.00,Wunderground v.1.15,2013-03-29 10:45:00,
2013-03-29 05:50:00,24.4,22.2,30.31,West,263,0.0,0.0,91,0.00,,,0.00,Wunderground v.1.15,2013-03-29 10:50:00,
2013-03-29 05:55:00,24.4,22.2,30.30,West,263,0.0,0.0,91,0.00,,,0.00,Wunderground v.1.15,2013-03-29 10:55:00,
2013-03-29 06:00:00,24.3,22.1,30.30,West,263,0.0,0.0,91,0.00,,,0.00,Wunderground v.1.15,2013-03-29 11:00:00,
2013-03-29 06:05:00,24.2,22.0,30.30,West,263,0.0,0.0,91,0.00,,,0.00,Wunderground v.1.15,2013-03-29 11:05:00,
2013-03-29 06:09:00,24.0,21.5,30.30,West,263,0.0,0.0,90,0.00,,,0.00,Wunderground v.1.15,2013-03-29 11:09:00,
2013-03-29 06:14:00,23.9,21.4,30.30,West,263,0.0,0.0,90,0.00,,,0.00,Wunderground v.1.15,2013-03-29 11:14:00,
2013-03-29 06:19:00,23.9,21.7,30.30,West,263,0.0,0.0,91,0.00,,,0.00,Wunderground v.1.15,2013-03-29 11:19:00,
2013-03-29 06:24:00,23.8,21.6,30.31,West,263,0.0,0.0,91,0.00,,,0.00,Wunderground v.1.15,2013-03-29 11:24:00,
2013-03-29 06:29:00,23.8,21.6,30.31,West,263,0.0,0.0,91,0.00,,,0.00,Wunderground v.1.15,2013-03-29 11:29:00,
2013-03-29 06:34:00,23.7,21.5,30.31,West,263,0.0,0.0,91,0.00,,,0.00,Wunderground v.1.15,2013-03-29 11:34:00,
2013-03-29 06:39:00,23.6,21.4,30.32,West,263,0.0,0.0,91,0.00,,,0.00,Wunderground v.1.15,2013-03-29 11:39:00,
2013-03-29 06:45:00,23.6,21.6,30.32,West,263,0.0,0.0,92,0.00,,,0.00,Wunderground v.1.15,2013-03-29 11:45:00,
2013-03-29 06:50:00,23.6,21.4,30.32,West,263,0.0,0.0,91,0.00,,,0.00,Wunderground v.1.15,2013-03-29 11:50:00,
2013-03-29 06:55:00,23.5,21.5,30.31,West,263,0.0,0.0,92,0.00,,,0.00,Wunderground v.1.15,2013-03-29 11:55:00,
2013-03-29 07:00:00,23.5,21.5,30.32,West,263,0.0,0.0,92,0.00,,,0.00,Wunderground v.1.15,2013-03-29 12:00:00,
2013-03-29 07:09:00,23.5,21.5,30.31,West,263,0.0,0.0,92,0.00,,,0.00,Wunderground v.1.15,2013-03-29 12:09:00,
2013-03-29 07:15:00,23.5,21.5,30.32,West,263,0.0,0.0,92,0.00,,,0.00,Wunderground v.1.15,2013-03-29 12:15:00,
2013-03-29 07:20:00,23.6,21.9,30.32,West,263,0.0,0.0,93,0.00,,,0.00,Wunderground v.1.15,2013-03-29 12:20:00,
2013-03-29 07:25:00,23.8,22.1,30.32,West,263,0.0,0.0,93,0.00,,,0.00,Wunderground v.1.15,2013-03-29 12:25:00,
2013-03-29 07:30:00,23.9,21.9,30.32,West,263,0.0,0.0,92,0.00,,,0.00,Wunderground v.1.15,2013-03-29 12:30:00,
2013-03-29 07:35:00,24.1,22.1,30.33,West,263,0.0,0.0,92,0.00,,,0.00,Wunderground v.1.15,2013-03-29 12:35:00,
2013-03-29 07:40:00,24.4,22.7,30.32,West,263,0.0,0.0,93,0.00,,,0.00,Wunderground v.1.15,2013-03-29 12:40:00,
2013-03-29 07:45:00,24.7,23.0,30.32,West,263,0.0,0.0,93,0.00,,,0.00,Wunderground v.1.15,2013-03-29 12:45:00,
2013-03-29 07:55:00,25.5,23.8,30.32,West,263,0.0,0.0,93,0.00,,,0.00,Wunderground v.1.15,2013-03-29 12:55:00,
2013-03-29 08:00:00,26.0,24.3,30.32,West,263,0.0,0.0,93,0.00,,,0.00,Wunderground v.1.15,2013-03-29 13:00:00,
2013-03-29 08:04:00,26.5,24.8,30.32,West,263,0.0,0.0,93,0.00,,,0.00,Wunderground v.1.15,2013-03-29 13:04:00,
2013-03-29 08:09:00,27.2,25.2,30.32,West,263,0.0,0.0,92,0.00,,,0.00,Wunderground v.1.15,2013-03-29 13:09:00,
2013-03-29 08:14:00,28.0,25.2,30.32,West,263,0.0,0.0,89,0.00,,,0.00,Wunderground v.1.15,2013-03-29 13:14:00,
2013-03-29 08:20:00,29.1,25.2,30.32,West,263,0.0,0.0,85,0.00,,,0.00,Wunderground v.1.15,2013-03-29 13:20:00,
2013-03-29 08:25:00,30.3,24.9,30.32,West,263,0.0,0.0,80,0.00,,,0.00,Wunderground v.1.15,2013-03-29 13:25:00,
2013-03-29 08:30:00,31.4,25.0,30.32,West,263,0.0,0.0,77,0.00,,,0.00,Wunderground v.1.15,2013-03-29 13:30:00,
2013-03-29 08:35:00,32.4,25.0,30.32,West,263,0.0,0.0,74,0.00,,,0.00,Wunderground v.1.15,2013-03-29 13:35:00,
2013-03-29 08:40:00,33.4,25.0,30.32,West,263,0.0,0.0,71,0.00,,,0.00,Wunderground v.1.15,2013-03-29 13:40:00,
2013-03-29 08:45:00,34.4,25.3,30.32,West,263,0.0,0.0,69,0.00,,,0.00,Wunderground v.1.15,2013-03-29 13:45:00,
2013-03-29 08:50:00,35.2,25.3,30.32,West,263,0.0,0.0,67,0.00,,,0.00,Wunderground v.1.15,2013-03-29 13:50:00,
2013-03-29 08:55:00,36.0,25.0,30.33,West,263,0.0,0.0,64,0.00,,,0.00,Wunderground v.1.15,2013-03-29 13:55:00,
2013-03-29 09:00:00,36.9,24.3,30.33,West,263,0.0,0.0,60,0.00,,,0.00,Wunderground v.1.15,2013-03-29 14:00:00,
2013-03-29 09:05:00,37.8,23.9,30.33,West,263,0.0,0.0,57,0.00,,,0.00,Wunderground v.1.15,2013-03-29 14:05:00,
2013-03-29 09:10:00,38.6,23.8,30.33,West,263,0.0,0.0,55,0.00,,,0.00,Wunderground v.1.15,2013-03-29 14:10:00,
2013-03-29 09:15:00,39.3,23.1,30.33,West,263,0.0,0.0,52,0.00,,,0.00,Wunderground v.1.15,2013-03-29 14:15:00,
2013-03-29 09:20:00,40.0,23.3,30.33,West,263,0.0,2.0,51,0.00,,,0.00,Wunderground v.1.15,2013-03-29 14:20:00,
2013-03-29 09:25:00,40.6,23.4,30.33,West,275,0.0,2.0,50,0.00,,,0.00,Wunderground v.1.15,2013-03-29 14:25:00,
2013-03-29 09:30:00,41.2,23.5,30.33,West,275,0.0,0.0,49,0.00,,,0.00,Wunderground v.1.15,2013-03-29 14:30:00,
2013-03-29 09:35:00,41.7,22.9,30.33,West,275,0.0,1.0,47,0.00,,,0.00,Wunderground v.1.15,2013-03-29 14:35:00,
2013-03-29 09:40:00,42.0,23.7,30.33,West,275,0.0,0.0,48,0.00,,,0.00,Wunderground v.1.15,2013-03-29 14:40:00,
2013-03-29 09:45:00,42.5,24.2,30.33,West,275,0.0,0.0,48,0.00,,,0.00,Wunderground v.1.15,2013-03-29 14:45:00,
2013-03-29 09:50:00,42.9,22.5,30.33,West,275,0.0,0.0,44,0.00,,,0.00,Wunderground v.1.15,2013-03-29 14:50:00,
2013-03-29 09:55:00,43.2,22.7,30.33,West,277,0.0,0.0,44,0.00,,,0.00,Wunderground v.1.15,2013-03-29 14:55:00,
2013-03-29 10:00:00,43.3,22.8,30.33,West,279,0.0,1.0,44,0.00,,,0.00,Wunderground v.1.15,2013-03-29 15:00:00,
2013-03-29 10:10:00,43.9,22.8,30.33,West,279,0.0,0.0,43,0.00,,,0.00,Wunderground v.1.15,2013-03-29 15:10:00,
2013-03-29 10:15:00,44.6,23.5,30.33,West,279,0.0,1.0,43,0.00,,,0.00,Wunderground v.1.15,2013-03-29 15:15:00,
2013-03-29 10:20:00,45.3,23.5,30.33,West,279,0.0,1.0,42,0.00,,,0.00,Wunderground v.1.15,2013-03-29 15:20:00,
2013-03-29 10:25:00,46.2,24.9,30.33,West,275,0.0,1.0,43,0.00,,,0.00,Wunderground v.1.15,2013-03-29 15:25:00,
2013-03-29 10:30:00,46.1,22.5,30.33,SSW,197,1.0,1.0,39,0.00,,,0.00,Wunderground v.1.15,2013-03-29 15:30:00,
2013-03-29 10:35:00,46.0,24.2,30.33,South,191,1.0,1.0,42,0.00,,,0.00,Wunderground v.1.15,2013-03-29 15:35:00,
2013-03-29 10:40:00,45.9,24.1,30.33,South,191,0.0,0.0,42,0.00,,,0.00,Wunderground v.1.15,2013-03-29 15:40:00,
2013-03-29 10:45:00,46.5,24.0,30.33,West,259,0.0,1.0,41,0.00,,,0.00,Wunderground v.1.15,2013-03-29 15:45:00,
2013-03-29 10:50:00,47.1,23.4,30.33,WSW,254,1.0,1.0,39,0.00,,,0.00,Wunderground v.1.15,2013-03-29 15:50:00,
2013-03-29 10:55:00,47.7,23.9,30.33,WSW,255,1.0,1.0,39,0.00,,,0.00,Wunderground v.1.15,2013-03-29 15:55:00,
2013-03-29 11:00:00,47.9,24.1,30.33,SW,223,1.0,3.0,39,0.00,,,0.00,Wunderground v.1.15,2013-03-29 16:00:00,
2013-03-29 11:10:00,47.5,26.1,30.33,SE,134,1.0,1.0,43,0.00,,,0.00,Wunderground v.1.15,2013-03-29 16:10:00,
2013-03-29 11:15:00,48.0,24.8,30.32,West,266,1.0,2.0,40,0.00,,,0.00,Wunderground v.1.15,2013-03-29 16:15:00,
2013-03-29 11:20:00,48.4,25.2,30.32,South,183,1.0,2.0,40,0.00,,,0.00,Wunderground v.1.15,2013-03-29 16:20:00,
2013-03-29 11:25:00,48.7,24.8,30.32,SSW,192,1.0,2.0,39,0.00,,,0.00,Wunderground v.1.15,2013-03-29 16:25:00,
2013-03-29 11:30:00,48.3,25.1,30.32,SSW,200,1.0,1.0,40,0.00,,,0.00,Wunderground v.1.15,2013-03-29 16:30:00,
2013-03-29 11:39:00,47.7,23.9,30.32,South,186,1.0,1.0,39,0.00,,,0.00,Wunderground v.1.15,2013-03-29 16:39:00,
2013-03-29 11:44:00,47.4,23.0,30.32,South,180,1.0,6.0,38,0.00,,,0.00,Wunderground v.1.15,2013-03-29 16:44:00,
2013-03-29 11:49:00,46.7,23.0,30.32,SSW,202,2.0,2.0,39,0.00,,,0.00,Wunderground v.1.15,2013-03-29 16:49:00,
2013-03-29 11:54:00,46.2,23.8,30.32,South,169,3.0,3.0,41,0.00,,,0.00,Wunderground v.1.15,2013-03-29 16:54:00,
2013-03-29 12:00:00,46.3,23.3,30.32,South,169,1.0,1.0,40,0.00,,,0.00,Wunderground v.1.15,2013-03-29 17:00:00,
2013-03-29 12:04:00,46.5,22.8,30.32,South,171,1.0,1.0,39,0.00,,,0.00,Wunderground v.1.15,2013-03-29 17:04:00,
2013-03-29 12:09:00,46.9,23.8,30.32,SSW,194,2.0,2.0,40,0.00,,,0.00,Wunderground v.1.15,2013-03-29 17:09:00,
2013-03-29 12:14:00,47.4,25.4,30.31,ENE,73,2.0,2.0,42,0.00,,,0.00,Wunderground v.1.15,2013-03-29 17:14:00,
2013-03-29 12:19:00,48.5,24.6,30.31,SE,140,1.0,1.0,39,0.00,,,0.00,Wunderground v.1.15,2013-03-29 17:19:00,
2013-03-29 12:24:00,48.6,24.7,30.31,SE,140,1.0,4.0,39,0.00,,,0.00,Wunderground v.1.15,2013-03-29 17:24:00,
2013-03-29 12:29:00,48.6,23.5,30.31,SE,142,1.0,2.0,37,0.00,,,0.00,Wunderground v.1.15,2013-03-29 17:29:00,
2013-03-29 12:34:00,48.3,23.8,30.31,SE,142,0.0,2.0,38,0.00,,,0.00,Wunderground v.1.15,2013-03-29 17:34:00,
2013-03-29 12:44:00,49.6,24.4,30.31,NE,35,0.0,1.0,37,0.00,,,0.00,Wunderground v.1.15,2013-03-29 17:44:00,
2013-03-29 12:49:00,50.0,23.4,30.31,NE,36,0.0,2.0,35,0.00,,,0.00,Wunderground v.1.15,2013-03-29 17:49:00,
2013-03-29 12:54:00,50.5,25.2,30.31,NE,53,1.0,2.0,37,0.00,,,0.00,Wunderground v.1.15,2013-03-29 17:54:00,
2013-03-29 13:00:00,51.0,25.6,30.31,North,355,1.0,1.0,37,0.00,,,0.00,Wunderground v.1.15,2013-03-29 18:00:00,
2013-03-29 13:09:00,52.2,25.3,30.30,NNE,23,2.0,2.0,35,0.00,,,0.00,Wunderground v.1.15,2013-03-29 18:09:00,
2013-03-29 13:15:00,51.4,21.7,30.30,SSE,150,1.0,2.0,31,0.00,,,0.00,Wunderground v.1.15,2013-03-29 18:15:00,
2013-03-29 13:20:00,51.0,22.9,30.30,ENE,71,1.0,1.0,33,0.00,,,0.00,Wunderground v.1.15,2013-03-29 18:20:00,
2013-03-29 13:25:00,51.0,22.9,30.30,NNE,22,1.0,3.0,33,0.00,,,0.00,Wunderground v.1.15,2013-03-29 18:25:00,
2013-03-29 13:30:00,51.0,23.6,30.30,NNW,333,1.0,2.0,34,0.00,,,0.00,Wunderground v.1.15,2013-03-29 18:30:00,
2013-03-29 13:35:00,51.4,23.2,30.30,NNE,20,1.0,2.0,33,0.00,,,0.00,Wunderground v.1.15,2013-03-29 18:35:00,
2013-03-29 13:40:00,50.8,22.0,30.29,ENE,59,1.0,1.0,32,0.00,,,0.00,Wunderground v.1.15,2013-03-29 18:40:00,
2013-03-29 13:50:00,51.1,23.7,30.29,SSE,165,1.0,1.0,34,0.00,,,0.00,Wunderground v.1.15,2013-03-29 18:50:00,
2013-03-29 13:55:00,50.2,23.6,30.29,South,176,1.0,3.0,35,0.00,,,0.00,Wunderground v.1.15,2013-03-29 18:55:00,
2013-03-29 14:00:00,49.2,22.7,30.29,SE,140,2.0,5.0,35,0.00,,,0.00,Wunderground v.1.15,2013-03-29 19:00:00,
2013-03-29 14:04:00,48.7,22.9,30.29,SSE,167,2.0,5.0,36,0.00,,,0.00,Wunderground v.1.15,2013-03-29 19:04:00,
2013-03-29 14:09:00,48.6,22.8,30.28,SSE,159,2.0,2.0,36,0.00,,,0.00,Wunderground v.1.15,2013-03-29 19:09:00,
2013-03-29 14:15:00,48.5,24.0,30.28,ESE,107,1.0,2.0,38,0.00,,,0.00,Wunderground v.1.15,2013-03-29 19:15:00,
2013-03-29 14:20:00,49.2,23.4,30.28,ESE,106,1.0,1.0,36,0.00,,,0.00,Wunderground v.1.15,2013-03-29 19:20:00,
2013-03-29 14:25:00,49.9,25.3,30.28,ESE,106,0.0,1.0,38,0.00,,,0.00,Wunderground v.1.15,2013-03-29 19:25:00,
2013-03-29 14:30:00,50.1,22.8,30.28,South,174,1.0,5.0,34,0.00,,,0.00,Wunderground v.1.15,2013-03-29 19:30:00,
2013-03-29 14:35:00,49.4,22.9,30.28,SSW,195,1.0,5.0,35,0.00,,,0.00,Wunderground v.1.15,2013-03-29 19:35:00,
2013-03-29 14:40:00,49.2,22.7,30.27,SSE,162,1.0,1.0,35,0.00,,,0.00,Wunderground v.1.15,2013-03-29 19:40:00,
2013-03-29 14:45:00,48.8,22.3,30.28,South,174,1.0,1.0,35,0.00,,,0.00,Wunderground v.1.15,2013-03-29 19:45:00,
2013-03-29 14:50:00,49.2,23.4,30.27,South,174,1.0,1.0,36,0.00,,,0.00,Wunderground v.1.15,2013-03-29 19:50:00,
2013-03-29 14:55:00,49.6,25.0,30.27,South,174,0.0,1.0,38,0.00,,,0.00,Wunderground v.1.15,2013-03-29 19:55:00,
2013-03-29 15:00:00,49.9,23.3,30.27,SSE,159,0.0,3.0,35,0.00,,,0.00,Wunderground v.1.15,2013-03-29 20:00:00,
2013-03-29 15:09:00,49.5,23.6,30.27,SE,144,1.0,1.0,36,0.00,,,0.00,Wunderground v.1.15,2013-03-29 20:09:00,
2013-03-29 15:14:00,49.2,22.7,30.27,SSE,150,2.0,2.0,35,0.00,,,0.00,Wunderground v.1.15,2013-03-29 20:14:00,
2013-03-29 15:20:00,48.9,23.7,30.27,South,184,2.0,5.0,37,0.00,,,0.00,Wunderground v.1.15,2013-03-29 20:20:00,
2013-03-29 15:25:00,48.9,24.4,30.27,SSE,148,2.0,5.0,38,0.00,,,0.00,Wunderground v.1.15,2013-03-29 20:25:00,
2013-03-29 15:29:00,48.9,24.4,30.27,South,169,2.0,2.0,38,0.00,,,0.00,Wunderground v.1.15,2013-03-29 20:29:00,
2013-03-29 15:34:00,48.7,24.8,30.27,SSW,192,2.0,2.0,39,0.00,,,0.00,Wunderground v.1.15,2013-03-29 20:34:00,
2013-03-29 15:39:00,48.6,24.7,30.27,SSE,150,2.0,4.0,39,0.00,,,0.00,Wunderground v.1.15,2013-03-29 20:39:00,
2013-03-29 15:44:00,48.5,24.0,30.26,SSE,153,2.0,4.0,38,0.00,,,0.00,Wunderground v.1.15,2013-03-29 20:44:00,
2013-03-29 15:49:00,48.6,25.3,30.26,South,190,2.0,2.0,40,0.00,,,0.00,Wunderground v.1.15,2013-03-29 20:49:00,
2013-03-29 15:55:00,49.0,24.5,30.26,SSW,202,1.0,2.0,38,0.00,,,0.00,Wunderground v.1.15,2013-03-29 20:55:00,
2013-03-29 16:00:00,49.2,24.6,30.26,South,186,1.0,1.0,38,0.00,,,0.00,Wunderground v.1.15,2013-03-29 21:00:00,
2013-03-29 16:04:00,49.2,24.0,30.26,SSW,209,1.0,2.0,37,0.00,,,0.00,Wunderground v.1.15,2013-03-29 21:04:00,
2013-03-29 16:09:00,49.0,23.8,30.25,SSW,196,1.0,4.0,37,0.00,,,0.00,Wunderground v.1.15,2013-03-29 21:09:00,
2013-03-29 16:14:00,49.2,25.9,30.26,West,268,1.0,4.0,40,0.00,,,0.00,Wunderground v.1.15,2013-03-29 21:14:00,
2013-03-29 16:19:00,50.0,24.7,30.25,WSW,246,1.0,1.0,37,0.00,,,0.00,Wunderground v.1.15,2013-03-29 21:19:00,
2013-03-29 16:25:00,49.7,24.5,30.25,South,190,2.0,2.0,37,0.00,,,0.00,Wunderground v.1.15,2013-03-29 21:25:00,
2013-03-29 16:30:00,49.4,24.2,30.25,SSW,193,3.0,3.0,37,0.00,,,0.00,Wunderground v.1.15,2013-03-29 21:30:00,
2013-03-29 16:35:00,49.0,23.8,30.25,WSW,254,3.0,3.0,37,0.00,,,0.00,Wunderground v.1.15,2013-03-29 21:35:00,
2013-03-29 16:40:00,49.4,24.2,30.25,SW,222,2.0,2.0,37,0.00,,,0.00,Wunderground v.1.15,2013-03-29 21:40:00,
2013-03-29 16:45:00,49.7,23.8,30.25,SW,225,1.0,2.0,36,0.00,,,0.00,Wunderground v.1.15,2013-03-29 21:45:00,
2013-03-29 16:50:00,49.5,24.9,30.25,South,175,2.0,3.0,38,0.00,,,0.00,Wunderground v.1.15,2013-03-29 21:50:00,
2013-03-29 16:55:00,49.2,24.0,30.25,SW,225,2.0,4.0,37,0.00,,,0.00,Wunderground v.1.15,2013-03-29 21:55:00,
2013-03-29 17:00:00,49.2,23.4,30.25,SSW,206,2.0,2.0,36,0.00,,,0.00,Wunderground v.1.15,2013-03-29 22:00:00,
2013-03-29 17:10:00,49.0,23.8,30.25,South,189,1.0,1.0,37,0.00,,,0.00,Wunderground v.1.15,2013-03-29 22:10:00,
2013-03-29 17:15:00,48.7,23.6,30.24,South,189,0.0,1.0,37,0.00,,,0.00,Wunderground v.1.15,2013-03-29 22:15:00,
2013-03-29 17:20:00,49.0,23.2,30.25,WSW,255,0.0,3.0,36,0.00,,,0.00,Wunderground v.1.15,2013-03-29 22:20:00,
2013-03-29 17:25:00,49.3,23.4,30.24,SSW,195,1.0,3.0,36,0.00,,,0.00,Wunderground v.1.15,2013-03-29 22:25:00,
2013-03-29 17:30:00,49.1,23.9,30.25,South,182,1.0,1.0,37,0.00,,,0.00,Wunderground v.1.15,2013-03-29 22:30:00,
2013-03-29 17:34:00,48.6,24.7,30.24,South,176,1.0,1.0,39,0.00,,,0.00,Wunderground v.1.15,2013-03-29 22:34:00,
2013-03-29 17:44:00,48.1,24.3,30.24,South,172,0.0,1.0,39,0.00,,,0.00,Wunderground v.1.15,2013-03-29 22:44:00,
2013-03-29 17:49:00,48.1,24.3,30.24,South,172,0.0,4.0,39,0.00,,,0.00,Wunderground v.1.15,2013-03-29 22:49:00,
2013-03-29 17:54:00,47.9,23.5,30.24,South,189,1.0,4.0,38,0.00,,,0.00,Wunderground v.1.15,2013-03-29 22:54:00,
2013-03-29 18:00:00,47.8,23.4,30.24,South,189,1.0,1.0,38,0.00,,,0.00,Wunderground v.1.15,2013-03-29 23:00:00,
2013-03-29 18:10:00,47.4,24.9,30.24,South,189,0.0,1.0,41,0.00,,,0.00,Wunderground v.1.15,2013-03-29 23:10:00,
2013-03-29 18:15:00,47.1,24.0,30.24,South,189,0.0,2.0,40,0.00,,,0.00,Wunderground v.1.15,2013-03-29 23:15:00,
2013-03-29 18:20:00,47.0,23.9,30.24,South,188,1.0,1.0,40,0.00,,,0.00,Wunderground v.1.15,2013-03-29 23:20:00,
2013-03-29 18:25:00,46.7,23.6,30.25,South,188,0.0,2.0,40,0.00,,,0.00,Wunderground v.1.15,2013-03-29 23:25:00,
2013-03-29 18:35:00,46.4,23.9,30.24,South,188,0.0,0.0,41,0.00,,,0.00,Wunderground v.1.15,2013-03-29 23:35:00,
2013-03-29 18:40:00,46.2,23.8,30.24,South,188,0.0,0.0,41,0.00,,,0.00,Wunderground v.1.15,2013-03-29 23:40:00,
2013-03-29 18:45:00,46.0,24.2,30.24,South,188,0.0,0.0,42,0.00,,,0.00,Wunderground v.1.15,2013-03-29 23:45:00,
2013-03-29 18:55:00,45.5,24.3,30.24,SE,128,0.0,1.0,43,0.00,,,0.00,Wunderground v.1.15,2013-03-29 23:55:00,
2013-03-29 19:00:00,45.1,25.0,30.24,SE,128,0.0,0.0,45,0.00,,,0.00,Wunderground v.1.15,2013-03-30 00:00:00,
2013-03-29 19:05:00,44.7,25.2,30.24,SE,128,0.0,0.0,46,0.00,,,0.00,Wunderground v.1.15,2013-03-30 00:05:00,
2013-03-29 19:10:00,44.3,25.3,30.24,SE,128,0.0,0.0,47,0.00,,,0.00,Wunderground v.1.15,2013-03-30 00:10:00,
2013-03-29 19:15:00,43.8,24.9,30.24,SE,128,0.0,0.0,47,0.00,,,0.00,Wunderground v.1.15,2013-03-30 00:15:00,
2013-03-29 19:20:00,43.4,25.0,30.24,SE,128,0.0,0.0,48,0.00,,,0.00,Wunderground v.1.15,2013-03-30 00:20:00,
2013-03-29 19:25:00,43.1,25.2,30.24,SE,128,0.0,0.0,49,0.00,,,0.00,Wunderground v.1.15,2013-03-30 00:25:00,
2013-03-29 19:30:00,42.8,24.9,30.24,SE,128,0.0,0.0,49,0.00,,,0.00,Wunderground v.1.15,2013-03-30 00:30:00,
2013-03-29 19:35:00,42.5,24.7,30.24,SE,128,0.0,0.0,49,0.00,,,0.00,Wunderground v.1.15,2013-03-30 00:35:00,
2013-03-29 19:40:00,42.2,24.9,30.24,SE,128,0.0,0.0,50,0.00,,,0.00,Wunderground v.1.15,2013-03-30 00:40:00,
2013-03-29 19:45:00,41.8,24.5,30.24,SE,128,0.0,0.0,50,0.00,,,0.00,Wunderground v.1.15,2013-03-30 00:45:00,
2013-03-29 19:50:00,41.5,24.7,30.24,SE,128,0.0,0.0,51,0.00,,,0.00,Wunderground v.1.15,2013-03-30 00:50:00,
2013-03-29 19:55:00,41.1,24.8,30.24,SE,128,0.0,0.0,52,0.00,,,0.00,Wunderground v.1.15,2013-03-30 00:55:00,
2013-03-29 20:00:00,40.8,24.5,30.24,SE,128,0.0,0.0,52,0.00,,,0.00,Wunderground v.1.15,2013-03-30 01:00:00,
2013-03-29 20:05:00,40.5,24.7,30.23,SE,128,0.0,0.0,53,0.00,,,0.00,Wunderground v.1.15,2013-03-30 01:05:00,
2013-03-29 20:10:00,40.1,24.8,30.24,SE,128,0.0,0.0,54,0.00,,,0.00,Wunderground v.1.15,2013-03-30 01:10:00,
2013-03-29 20:15:00,39.9,24.6,30.23,SE,128,0.0,0.0,54,0.00,,,0.00,Wunderground v.1.15,2013-03-30 01:15:00,
2013-03-29 20:20:00,39.7,24.4,30.24,SE,128,0.0,0.0,54,0.00,,,0.00,Wunderground v.1.15,2013-03-30 01:20:00,
2013-03-29 20:25:00,39.5,24.7,30.24,SE,128,0.0,0.0,55,0.00,,,0.00,Wunderground v.1.15,2013-03-30 01:25:00,
2013-03-29 20:30:00,39.1,24.7,30.24,SE,128,0.0,0.0,56,0.00,,,0.00,Wunderground v.1.15,2013-03-30 01:30:00,
2013-03-29 20:35:00,38.8,24.0,30.24,SE,128,0.0,0.0,55,0.00,,,0.00,Wunderground v.1.15,2013-03-30 01:35:00,
2013-03-29 20:40:00,38.4,24.1,30.24,SE,128,0.0,0.0,56,0.00,,,0.00,Wunderground v.1.15,2013-03-30 01:40:00,
2013-03-29 20:45:00,38.0,24.1,30.24,SE,128,0.0,0.0,57,0.00,,,0.00,Wunderground v.1.15,2013-03-30 01:45:00,
2013-03-29 20:50:00,37.7,24.6,30.24,SE,128,0.0,0.0,59,0.00,,,0.00,Wunderground v.1.15,2013-03-30 01:50:00,
2013-03-29 20:55:00,37.3,25.1,30.24,SE,128,0.0,0.0,61,0.00,,,0.00,Wunderground v.1.15,2013-03-30 01:55:00,
2013-03-29 21:00:00,37.0,24.8,30.24,SE,128,0.0,0.0,61,0.00,,,0.00,Wunderground v.1.15,2013-03-30 02:00:00,
2013-03-29 21:10:00,36.7,24.5,30.24,SE,128,0.0,0.0,61,0.00,,,0.00,Wunderground v.1.15,2013-03-30 02:10:00,
2013-03-29 21:20:00,36.4,24.6,30.24,SE,128,0.0,0.0,62,0.00,,,0.00,Wunderground v.1.15,2013-03-30 02:20:00,
2013-03-29 21:25:00,36.2,24.4,30.24,SE,128,0.0,0.0,62,0.00,,,0.00,Wunderground v.1.15,2013-03-30 02:25:00,
2013-03-29 21:30:00,35.9,24.9,30.24,SE,128,0.0,0.0,64,0.00,,,0.00,Wunderground v.1.15,2013-03-30 02:30:00,
2013-03-29 21:35:00,35.8,24.4,30.24,SE,128,0.0,0.0,63,0.00,,,0.00,Wunderground v.1.15,2013-03-30 02:35:00,
2013-03-29 21:40:00,35.9,24.5,30.24,SE,128,0.0,0.0,63,0.00,,,0.00,Wunderground v.1.15,2013-03-30 02:40:00,
2013-03-29 21:45:00,35.9,24.5,30.24,SE,128,0.0,0.0,63,0.00,,,0.00,Wunderground v.1.15,2013-03-30 02:45:00,
2013-03-29 21:50:00,35.9,24.5,30.24,SE,128,0.0,0.0,63,0.00,,,0.00,Wunderground v.1.15,2013-03-30 02:50:00,
2013-03-29 21:55:00,35.9,24.5,30.24,SE,128,0.0,0.0,63,0.00,,,0.00,Wunderground v.1.15,2013-03-30 02:55:00,
2013-03-29 22:00:00,35.8,24.4,30.24,SE,128,0.0,0.0,63,0.00,,,0.00,Wunderground v.1.15,2013-03-30 03:00:00,
2013-03-29 22:05:00,35.7,24.3,30.24,SE,128,0.0,0.0,63,0.00,,,0.00,Wunderground v.1.15,2013-03-30 03:05:00,
2013-03-29 22:10:00,35.5,24.1,30.24,SE,128,0.0,0.0,63,0.00,,,0.00,Wunderground v.1.15,2013-03-30 03:10:00,
2013-03-29 22:15:00,35.3,24.3,30.24,SE,128,0.0,0.0,64,0.00,,,0.00,Wunderground v.1.15,2013-03-30 03:15:00,
2013-03-29 22:25:00,34.7,24.1,30.24,SE,128,0.0,0.0,65,0.00,,,0.00,Wunderground v.1.15,2013-03-30 03:25:00,
2013-03-29 22:30:00,34.5,23.9,30.24,SE,128,0.0,0.0,65,0.00,,,0.00,Wunderground v.1.15,2013-03-30 03:30:00,
2013-03-29 22:35:00,34.4,23.8,30.24,SE,128,0.0,0.0,65,0.00,,,0.00,Wunderground v.1.15,2013-03-30 03:35:00,
2013-03-29 22:40:00,34.4,23.8,30.24,SE,128,0.0,1.0,65,0.00,,,0.00,Wunderground v.1.15,2013-03-30 03:40:00,
2013-03-29 22:45:00,34.3,24.1,30.24,SE,128,0.0,1.0,66,0.00,,,0.00,Wunderground v.1.15,2013-03-30 03:45:00,
2013-03-29 22:50:00,34.1,23.9,30.24,SE,128,0.0,0.0,66,0.00,,,0.00,Wunderground v.1.15,2013-03-30 03:50:00,
2013-03-29 22:55:00,34.0,24.2,30.24,SE,128,0.0,0.0,67,0.00,,,0.00,Wunderground v.1.15,2013-03-30 03:55:00,
2013-03-29 23:00:00,34.1,24.6,30.23,SE,128,0.0,0.0,68,0.00,,,0.00,Wunderground v.1.15,2013-03-30 04:00:00,
2013-03-29 23:05:00,34.2,24.4,30.23,SE,128,0.0,0.0,67,0.00,,,0.00,Wunderground v.1.15,2013-03-30 04:05:00,
2013-03-29 23:10:00,34.4,24.2,30.23,SE,128,0.0,0.0,66,0.00,,,0.00,Wunderground v.1.15,2013-03-30 04:10:00,
2013-03-29 23:15:00,34.4,24.2,30.23,SE,128,0.0,0.0,66,0.00,,,0.00,Wunderground v.1.15,2013-03-30 04:15:00,
2013-03-29 23:20:00,34.4,24.2,30.23,SE,128,0.0,0.0,66,0.00,,,0.00,Wunderground v.1.15,2013-03-30 04:20:00,
2013-03-29 23:25:00,34.4,24.6,30.23,SE,128,0.0,0.0,67,0.00,,,0.00,Wunderground v.1.15,2013-03-30 04:25:00,
2013-03-29 23:30:00,34.4,24.2,30.23,SE,128,0.0,0.0,66,0.00,,,0.00,Wunderground v.1.15,2013-03-30 04:30:00,
2013-03-29 23:35:00,34.7,24.5,30.23,SE,128,0.0,0.0,66,0.00,,,0.00,Wunderground v.1.15,2013-03-30 04:35:00,
2013-03-29 23:40:00,34.8,24.6,30.23,SE,128,0.0,0.0,66,0.00,,,0.00,Wunderground v.1.15,2013-03-30 04:40:00,
2013-03-29 23:45:00,35.1,24.9,30.23,SE,128,0.0,0.0,66,0.00,,,0.00,Wunderground v.1.15,2013-03-30 04:45:00,
2013-03-29 23:50:00,35.2,24.6,30.22,SE,128,0.0,0.0,65,0.00,,,0.00,Wunderground v.1.15,2013-03-30 04:50:00,